Time;durP1;ratioP1;P1;durP2;ratioP2;P2;SDS_P1;SDS_P2;PMS_P1;PMS_P2;Temp;Humidity;BMP_temperature;BMP_pressure;BME280_temperature;BME280_humidity;BME280_pressure;Samples;Min_cycle;Max_cycle;Signal;HPM_P1;HPM_P2
2021/04/05 00:01:46;;;;;;;4.53;2.90;;;-1.20;99.90;-2.80;96704.00;;;;4896126;29;20458;-84
2021/04/05 00:04:35;;;;;;;5.27;3.23;;;-1.30;99.90;-2.90;96699.00;;;;4889597;29;20431;-84
2021/04/05 00:07:24;;;;;;;2.67;1.97;;;-1.30;99.90;-2.90;96690.00;;;;4896679;29;20434;-84
2021/04/05 00:10:19;;;;;;;3.47;3.17;;;-1.10;99.90;-2.80;96699.00;;;;4895523;29;20446;-84
2021/04/05 00:13:11;;;;;;;2.67;2.47;;;-1.40;99.90;-2.80;96692.00;;;;4895580;29;20486;-84
2021/04/05 00:15:59;;;;;;;3.43;2.93;;;-1.40;99.90;-3.10;96691.00;;;;4893655;29;21196;-84
2021/04/05 00:18:52;;;;;;;3.90;3.47;;;-1.50;99.90;-3.10;96690.00;;;;4895411;29;20470;-83
2021/04/05 00:21:41;;;;;;;6.87;3.80;;;-1.50;99.90;-3.00;96686.00;;;;4895357;29;20430;-83
2021/04/05 00:24:30;;;;;;;5.40;3.07;;;-1.60;99.90;-2.90;96681.00;;;;4894772;29;20439;-84
2021/04/05 00:27:17;;;;;;;4.03;3.23;;;-1.50;99.90;-3.20;96674.00;;;;4895147;29;20439;-83
2021/04/05 00:30:10;;;;;;;3.90;3.50;;;-1.30;99.90;-3.20;96674.00;;;;4896054;29;20431;-84
2021/04/05 00:32:58;;;;;;;3.30;2.10;;;-1.60;99.90;-3.30;96672.00;;;;4895522;29;20553;-83
2021/04/05 00:35:46;;;;;;;5.63;3.57;;;-1.50;99.90;-3.20;96674.00;;;;4895487;29;20970;-82
2021/04/05 00:38:35;;;;;;;2.83;2.63;;;-1.70;99.90;-3.20;96660.00;;;;4896516;29;20465;-84
2021/04/05 00:41:23;;;;;;;3.27;3.00;;;-1.70;99.90;-3.10;96670.00;;;;4896054;29;20965;-84
2021/04/05 00:44:13;;;;;;;5.73;3.53;;;-1.70;99.90;-3.00;96657.00;;;;4895379;29;20461;-83
2021/04/05 00:47:01;;;;;;;5.83;3.87;;;-1.70;99.90;-3.10;96659.00;;;;4895309;29;20439;-83
2021/04/05 00:49:49;;;;;;;5.10;4.10;;;-1.70;99.90;-3.20;96650.00;;;;4884825;29;20467;-82
2021/04/05 00:52:37;;;;;;;6.30;3.60;;;-1.70;99.90;-3.30;96655.00;;;;4895336;29;20862;-84
2021/04/05 00:55:27;;;;;;;4.13;2.83;;;-1.80;99.90;-3.30;96651.00;;;;4894942;29;20991;-84
2021/04/05 00:58:17;;;;;;;3.43;2.93;;;-1.80;99.90;-3.30;96645.00;;;;4896638;29;20456;-83
2021/04/05 01:01:08;;;;;;;4.37;2.80;;;-1.80;99.90;-3.30;96646.00;;;;4895798;29;20449;-83
2021/04/05 01:03:56;;;;;;;3.40;3.20;;;-1.90;99.90;-3.20;96631.00;;;;4895130;29;20815;-83
2021/04/05 01:06:44;;;;;;;4.97;3.70;;;-1.80;99.90;-3.10;96629.00;;;;4895803;29;20434;-83
2021/04/05 01:09:32;;;;;;;2.90;2.70;;;-1.80;99.90;-3.40;96630.00;;;;4896201;29;20458;-83
2021/04/05 01:12:26;;;;;;;3.70;3.13;;;-1.80;99.90;-3.40;96621.00;;;;4895870;29;20485;-83
2021/04/05 01:15:17;;;;;;;3.23;2.73;;;-1.80;99.90;-3.40;96619.00;;;;4894816;29;20498;-83
2021/04/05 01:18:06;;;;;;;3.33;2.53;;;-1.90;99.90;-3.40;96615.00;;;;4895174;29;20466;-83
2021/04/05 01:20:54;;;;;;;4.73;3.60;;;-1.90;99.90;-3.50;96608.00;;;;4895230;29;20434;-83
2021/04/05 01:23:44;;;;;;;7.13;2.70;;;-1.90;99.90;-3.50;96614.00;;;;4894270;29;20453;-82
2021/04/05 01:26:33;;;;;;;5.17;2.53;;;-2.00;99.90;-3.40;96604.00;;;;4895634;29;20439;-82
2021/04/05 01:29:21;;;;;;;5.20;3.30;;;-1.90;99.90;-3.50;96595.00;;;;4894298;29;20466;-82
2021/04/05 01:32:11;;;;;;;9.83;4.07;;;-1.90;99.90;-3.40;96579.00;;;;4895157;29;20483;-83
2021/04/05 01:35:01;;;;;;;3.53;2.87;;;-1.90;99.90;-3.30;96570.00;;;;4894719;29;20443;-84
2021/04/05 01:37:49;;;;;;;3.60;2.80;;;-1.90;99.90;-3.10;96578.00;;;;4894030;29;20975;-83
2021/04/05 01:40:41;;;;;;;7.10;3.33;;;-1.90;99.90;-3.30;96577.00;;;;4894431;29;20442;-83
2021/04/05 01:43:29;;;;;;;7.07;3.07;;;-1.80;99.90;-3.50;96578.00;;;;4895513;29;20490;-83
2021/04/05 01:46:19;;;;;;;3.97;2.83;;;-1.90;99.90;-3.40;96568.00;;;;4894898;29;20438;-83
2021/04/05 01:49:07;;;;;;;3.47;2.47;;;-1.90;99.90;-3.30;96562.00;;;;4896961;29;20455;-85
2021/04/05 01:51:55;;;;;;;2.80;2.40;;;-1.90;99.90;-3.30;96574.00;;;;4899010;29;20442;-84
2021/04/05 01:54:43;;;;;;;4.17;3.23;;;-1.90;99.90;-3.10;96573.00;;;;4886385;29;20428;-84
2021/04/05 01:57:32;;;;;;;6.07;3.10;;;-1.90;99.90;-3.50;96563.00;;;;4902546;29;20454;-83
2021/04/05 02:00:24;;;;;;;3.47;2.50;;;-1.90;99.90;-3.40;96546.00;;;;4914911;29;20516;-82
2021/04/05 02:03:13;;;;;;;5.77;3.40;;;-1.90;99.90;-3.60;96551.00;;;;4894940;29;20439;-83
2021/04/05 02:06:04;;;;;;;2.67;2.47;;;-2.00;99.90;-3.50;96541.00;;;;4894272;29;20446;-83
2021/04/05 02:08:52;;;;;;;2.53;2.13;;;-2.00;99.90;-3.50;96543.00;;;;4893737;29;21015;-84
2021/04/05 02:11:40;;;;;;;2.60;2.40;;;-2.00;99.90;-3.80;96537.00;;;;4894428;29;20431;-85
2021/04/05 02:14:29;;;;;;;5.80;2.60;;;-2.10;99.90;-3.70;96540.00;;;;4894265;29;20489;-83
2021/04/05 02:17:21;;;;;;;2.87;2.67;;;-2.20;99.90;-3.60;96538.00;;;;4894953;29;20970;-85
2021/04/05 02:20:12;;;;;;;5.17;2.67;;;-2.20;99.90;-3.50;96536.00;;;;4894124;29;20731;-82
2021/04/05 02:23:00;;;;;;;2.70;2.50;;;-2.20;99.90;-3.50;96524.00;;;;4894100;29;20431;-84
2021/04/05 02:26:06;;;;;;;7.57;2.50;;;-2.10;99.90;-3.40;96516.00;;;;4893815;29;20458;-83
2021/04/05 02:28:59;;;;;;;2.33;2.13;;;-2.10;99.90;-3.20;96530.00;;;;4893944;29;20446;-83
2021/04/05 02:31:48;;;;;;;2.30;1.77;;;-2.00;99.90;-3.60;96526.00;;;;4881686;29;20445;-83
2021/04/05 02:34:36;;;;;;;1.93;1.73;;;-2.00;99.90;-4.10;96511.00;;;;4893258;29;20478;-84
2021/04/05 02:37:23;;;;;;;2.70;2.50;;;-2.10;99.90;-4.20;96496.00;;;;4881420;29;20447;-84
2021/04/05 02:40:16;;;;;;;5.70;3.10;;;-2.30;99.90;-4.20;96490.00;;;;4884307;29;20431;-83
2021/04/05 02:43:04;;;;;;;2.83;2.53;;;-2.40;99.90;-4.10;96492.00;;;;4893111;29;20457;-84
2021/04/05 02:45:55;;;;;;;3.50;2.10;;;-2.50;99.90;-3.90;96492.00;;;;4893386;29;20446;-85
2021/04/05 02:48:47;;;;;;;1.70;1.60;;;-2.50;99.90;-3.70;96488.00;;;;4894287;29;20477;-82
2021/04/05 02:51:41;;;;;;;2.47;2.13;;;-2.50;99.90;-3.50;96490.00;;;;4900848;29;20442;-83
2021/04/05 02:54:28;;;;;;;2.07;1.97;;;-2.30;99.90;-3.50;96476.00;;;;4900385;29;21177;-83
2021/04/05 02:57:16;;;;;;;4.53;3.07;;;-2.30;99.90;-3.70;96472.00;;;;4900749;29;20431;-81
2021/04/05 03:00:10;;;;;;;2.97;2.77;;;-2.20;99.90;-3.90;96478.00;;;;4900173;29;20446;-83
2021/04/05 03:03:00;;;;;;;2.67;2.47;;;-2.20;99.90;-3.90;96472.00;;;;4900041;29;20438;-81
2021/04/05 03:05:50;;;;;;;3.10;2.70;;;-2.30;99.90;-3.90;96475.00;;;;4899729;29;20531;-83
2021/04/05 03:08:38;;;;;;;3.73;2.33;;;-2.40;99.90;-3.90;96471.00;;;;4901177;29;20458;-83
2021/04/05 03:11:26;;;;;;;2.73;2.50;;;-2.40;99.90;-4.10;96452.00;;;;4900223;29;20442;-83
2021/04/05 03:14:14;;;;;;;5.83;2.17;;;-1.90;99.90;-4.20;96463.00;;;;4899821;29;20470;-82
2021/04/05 03:17:03;;;;;;;2.80;2.60;;;-2.40;99.90;-4.30;96447.00;;;;4900264;29;20446;-84
2021/04/05 03:19:54;;;;;;;2.37;2.17;;;-2.60;99.90;-4.30;96442.00;;;;4900613;29;20457;-83
2021/04/05 03:22:45;;;;;;;2.17;1.93;;;-2.70;99.90;-4.00;96450.00;;;;4900128;29;20445;-84
2021/04/05 03:25:33;;;;;;;5.50;2.43;;;-2.70;99.90;-4.00;96443.00;;;;4900732;29;20435;-84
2021/04/05 03:28:21;;;;;;;2.33;2.23;;;-2.60;99.90;-4.30;96440.00;;;;4900530;29;20458;-83
2021/04/05 03:31:14;;;;;;;2.30;2.20;;;-2.60;99.90;-4.20;96442.00;;;;4901761;29;20512;-84
2021/04/05 03:34:11;;;;;;;3.00;2.67;;;-2.70;99.90;-4.00;96442.00;;;;4902588;29;20481;-85
2021/04/05 03:37:07;;;;;;;2.70;2.50;;;-2.60;99.90;-3.90;96427.00;;;;4902033;29;20435;-84
2021/04/05 03:39:56;;;;;;;6.13;2.40;;;-2.60;99.90;-3.90;96411.00;;;;4901099;29;20442;-85
2021/04/05 03:42:47;;;;;;;2.37;2.27;;;-2.50;99.90;-3.80;96414.00;;;;4901178;29;20446;-84
2021/04/05 03:45:43;;;;;;;2.50;2.30;;;-2.50;99.90;-4.00;96404.00;;;;4900376;29;20445;-83
2021/04/05 03:48:36;;;;;;;4.30;2.00;;;-2.50;99.90;-4.10;96415.00;;;;4900113;29;20450;-83
2021/04/05 03:51:33;;;;;;;6.37;4.00;;;-2.50;99.90;-4.20;96416.00;;;;4899447;29;20438;-83
2021/04/05 03:54:23;;;;;;;3.23;2.93;;;-2.60;99.90;-4.20;96422.00;;;;4899640;29;20858;-83
2021/04/05 03:57:14;;;;;;;2.57;2.37;;;-2.60;99.90;-4.10;96408.00;;;;4899926;29;20807;-85
2021/04/05 04:00:09;;;;;;;3.60;2.70;;;-2.60;99.90;-4.30;96409.00;;;;4899508;29;20442;-82
2021/04/05 04:03:00;;;;;;;2.33;2.13;;;-2.60;99.90;-4.20;96405.00;;;;4887677;29;20441;-82
2021/04/05 04:05:53;;;;;;;3.03;2.77;;;-2.70;99.90;-4.00;96399.00;;;;4892255;29;20431;-83
2021/04/05 04:08:44;;;;;;;2.57;2.27;;;-2.60;99.90;-4.00;96395.00;;;;4897210;29;20459;-83
2021/04/05 04:11:35;;;;;;;3.03;2.27;;;-2.60;99.90;-4.00;96386.00;;;;4897173;29;20450;-83
2021/04/05 04:14:25;;;;;;;5.57;2.77;;;-2.60;99.90;-4.10;96384.00;;;;4897818;29;20501;-83
2021/04/05 04:17:14;;;;;;;3.63;2.60;;;-2.60;99.90;-4.30;96381.00;;;;4897861;29;21380;-82
2021/04/05 04:20:08;;;;;;;4.10;2.40;;;-2.60;99.90;-4.10;96393.00;;;;4898198;29;20458;-83
2021/04/05 04:22:57;;;;;;;4.20;2.47;;;-2.70;99.90;-3.90;96386.00;;;;4895599;29;20442;-83
2021/04/05 04:25:45;;;;;;;2.27;2.13;;;-2.50;99.90;-4.30;96387.00;;;;4897049;29;20446;-84
2021/04/05 04:28:35;;;;;;;3.73;2.43;;;-2.60;99.90;-4.40;96378.00;;;;4898309;29;20494;-84
2021/04/05 04:31:24;;;;;;;2.60;2.10;;;-2.60;99.90;-4.30;96380.00;;;;4898167;29;20450;-83
2021/04/05 04:34:15;;;;;;;4.53;2.80;;;-2.70;99.90;-4.20;96373.00;;;;4896336;29;20478;-83
2021/04/05 04:37:04;;;;;;;2.83;2.20;;;-2.70;99.90;-4.50;96359.00;;;;4898137;29;21114;-83
2021/04/05 04:39:52;;;;;;;2.37;2.00;;;-2.80;99.90;-4.70;96359.00;;;;4896298;29;20478;-83
2021/04/05 04:42:40;;;;;;;2.80;2.33;;;-2.50;99.90;-4.70;96345.00;;;;4891084;29;20453;-83
2021/04/05 04:45:28;;;;;;;1.63;1.53;;;-2.90;99.90;-4.50;96360.00;;;;4894892;29;20449;-81
2021/04/05 04:48:17;;;;;;;2.10;1.90;;;-2.90;99.90;-4.50;96359.00;;;;4895606;29;20462;-84
2021/04/05 04:51:05;;;;;;;2.80;2.60;;;-2.90;99.90;-4.60;96346.00;;;;4896722;29;20450;-84
2021/04/05 04:53:57;;;;;;;7.00;2.87;;;-2.90;99.90;-4.40;96347.00;;;;4898442;29;20474;-85
2021/04/05 04:56:45;;;;;;;5.33;2.53;;;-3.00;99.90;-4.00;96352.00;;;;4887290;29;20542;-85
2021/04/05 04:59:34;;;;;;;3.23;2.93;;;-2.90;99.90;-4.10;96346.00;;;;4893466;29;20466;-84
2021/04/05 05:02:22;;;;;;;3.23;2.57;;;-2.70;99.90;-4.20;96344.00;;;;4893856;29;21251;-84
2021/04/05 05:05:15;;;;;;;2.20;2.10;;;-2.70;99.90;-4.30;96339.00;;;;4892871;29;20482;-83
2021/04/05 05:08:06;;;;;;;5.17;1.93;;;-2.70;99.90;-4.90;96327.00;;;;4896283;29;20462;-83
2021/04/05 05:10:54;;;;;;;4.77;2.33;;;-2.90;99.90;-4.70;96327.00;;;;4895113;29;20434;-82
2021/04/05 05:13:42;;;;;;;2.03;1.90;;;-3.00;99.90;-4.40;96337.00;;;;4899251;29;20489;-84
2021/04/05 05:16:32;;;;;;;2.63;2.43;;;-2.80;99.90;-4.30;96340.00;;;;4900532;29;20478;-84
2021/04/05 05:19:20;;;;;;;2.10;1.50;;;-2.90;99.90;-4.10;96339.00;;;;4897227;29;20455;-84
2021/04/05 05:22:16;;;;;;;2.57;2.27;;;-2.80;99.90;-4.10;96338.00;;;;4899251;29;20982;-84
2021/04/05 05:25:06;;;;;;;2.47;2.27;;;-2.70;99.90;-3.90;96324.00;;;;4899150;29;20455;-84
2021/04/05 05:27:58;;;;;;;2.17;1.97;;;-2.70;99.90;-3.70;96332.00;;;;4896655;29;20459;-84
2021/04/05 05:30:48;;;;;;;2.10;1.90;;;-2.60;99.90;-3.40;96320.00;;;;4897935;29;20964;-83
2021/04/05 05:33:41;;;;;;;2.17;1.80;;;-2.30;99.90;-3.20;96324.00;;;;4887874;29;20477;-84
2021/04/05 05:36:29;;;;;;;2.43;2.20;;;-2.20;99.90;-3.10;96322.00;;;;4892435;29;20438;-83
2021/04/05 05:39:19;;;;;;;4.03;2.13;;;-2.00;99.90;-3.10;96333.00;;;;4903344;29;20453;-85
2021/04/05 05:42:17;;;;;;;3.30;3.00;;;-1.90;99.90;-2.70;96332.00;;;;4903362;29;20450;-82
2021/04/05 05:45:07;;;;;;;2.30;2.10;;;-1.70;99.90;-2.60;96322.00;;;;4892420;29;20450;-83
2021/04/05 05:48:05;;;;;;;3.67;1.90;;;-1.50;99.90;-2.80;96324.00;;;;4894794;29;20447;-83
2021/04/05 05:50:57;;;;;;;2.37;2.20;;;-1.40;99.90;-3.10;96318.00;;;;4887138;29;20441;-82
2021/04/05 05:54:00;;;;;;;5.17;2.77;;;-1.50;99.90;-3.00;96310.00;;;;4896018;29;20478;-82
2021/04/05 05:56:57;;;;;;;3.67;3.23;;;-1.50;99.90;-2.80;96303.00;;;;4890242;29;20948;-83
2021/04/05 05:59:52;;;;;;;2.90;2.20;;;-1.50;99.90;-2.60;96311.00;;;;4896680;29;21016;-83
2021/04/05 06:03:05;;;;;;;3.73;2.23;;;-1.40;99.90;-2.50;96297.00;;;;4889191;29;21168;-83
2021/04/05 06:06:10;;;;;;;7.17;3.00;;;-1.30;99.90;-2.60;96287.00;;;;4892792;29;20466;-83
2021/04/05 06:09:08;;;;;;;7.70;4.43;;;-1.30;99.90;-2.40;96283.00;;;;4891420;29;20461;-84
2021/04/05 06:12:06;;;;;;;7.53;5.13;;;-1.20;99.90;-2.20;96276.00;;;;4895369;29;20458;-83
2021/04/05 06:15:10;;;;;;;10.17;4.87;;;-0.90;99.90;-2.20;96293.00;;;;4894699;29;20497;-83
2021/04/05 06:18:26;;;;;;;4.13;3.47;;;-0.20;99.90;-2.00;96291.00;;;;4890037;29;20473;-82
2021/04/05 06:21:35;;;;;;;5.87;3.33;;;-0.80;99.90;-1.60;96281.00;;;;4892272;29;20444;-82
2021/04/05 06:24:33;;;;;;;8.73;5.90;;;-0.70;99.90;-1.40;96286.00;;;;4889370;29;20442;-85
2021/04/05 06:27:40;;;;;;;5.53;4.30;;;-0.50;99.90;-1.20;96282.00;;;;4894361;29;20438;-85
2021/04/05 06:30:42;;;;;;;4.87;3.00;;;-0.30;99.90;-1.00;96281.00;;;;4894265;29;20435;-84
2021/04/05 06:33:33;;;;;;;6.43;3.70;;;-0.10;99.90;-0.70;96268.00;;;;4894420;29;20469;-85
2021/04/05 06:36:31;;;;;;;4.03;3.60;;;0.20;99.90;-0.50;96269.00;;;;4895855;29;20434;-84
2021/04/05 06:39:24;;;;;;;4.03;3.53;;;0.40;99.90;-0.40;96267.00;;;;4895816;29;20455;-84
2021/04/05 06:43:20;;;;;;;4.17;3.60;;;0.60;99.90;-0.20;96257.00;;;;4894542;29;20439;-85
2021/04/05 06:46:25;;;;;;;3.83;3.17;;;0.70;99.90;0.10;96255.00;;;;4837796;29;20456;-83
2021/04/05 06:49:40;;;;;;;4.33;3.60;;;1.00;99.90;0.50;96271.00;;;;4832446;29;20452;-85
2021/04/05 06:52:50;;;;;;;6.03;3.80;;;1.20;99.90;0.90;96265.00;;;;4892381;29;20457;-84
2021/04/05 06:55:43;;;;;;;3.17;2.90;;;1.80;99.90;1.40;96260.00;;;;4890624;29;20951;-83
2021/04/05 06:58:59;;;;;;;3.33;3.00;;;1.70;99.90;1.80;96267.00;;;;4892915;29;20482;-85
2021/04/05 07:02:07;;;;;;;3.70;3.17;;;2.20;99.90;2.00;96260.00;;;;4888434;29;20981;-85
2021/04/05 07:05:09;;;;;;;4.90;3.17;;;2.50;99.90;2.30;96263.00;;;;4895210;29;20454;-85
2021/04/05 07:08:06;;;;;;;4.23;3.47;;;2.80;99.90;2.60;96254.00;;;;4895208;29;20480;-85
2021/04/05 07:11:12;;;;;;;5.83;3.27;;;3.20;99.90;2.90;96248.00;;;;4886652;29;20470;-84
2021/04/05 07:14:14;;;;;;;5.40;2.93;;;3.40;99.90;3.00;96249.00;;;;4897740;29;20489;-83
2021/04/05 07:17:15;;;;;;;3.57;2.97;;;3.70;99.90;3.20;96245.00;;;;4898066;29;20446;-85
2021/04/05 07:20:14;;;;;;;6.73;2.90;;;3.90;99.90;3.50;96242.00;;;;4899609;29;20446;-86
2021/04/05 07:23:27;;;;;;;4.00;3.00;;;4.10;99.90;3.60;96241.00;;;;4900598;29;20458;-84
2021/04/05 07:26:20;;;;;;;3.47;3.13;;;4.40;99.90;3.80;96240.00;;;;4894510;29;20455;-85
2021/04/05 07:29:15;;;;;;;6.80;3.33;;;4.50;99.90;4.00;96234.00;;;;4897396;29;20471;-83
2021/04/05 07:32:11;;;;;;;4.03;3.27;;;4.70;99.90;4.20;96236.00;;;;4899233;29;20851;-85
2021/04/05 07:35:09;;;;;;;5.00;3.23;;;4.90;98.10;4.30;96230.00;;;;4894122;29;20497;-83
2021/04/05 07:38:06;;;;;;;3.67;3.20;;;5.10;95.90;4.40;96223.00;;;;4901746;29;20829;-86
2021/04/05 07:41:03;;;;;;;5.03;3.57;;;5.30;93.80;4.60;96227.00;;;;4899867;29;20469;-85
2021/04/05 07:44:29;;;;;;;4.63;2.90;;;5.30;92.90;4.90;96223.00;;;;4901582;29;20846;-87
2021/04/05 07:47:37;;;;;;;7.50;2.83;;;5.50;92.70;5.20;96229.00;;;;4897215;29;20449;-85
2021/04/05 07:50:35;;;;;;;7.60;3.63;;;5.70;92.10;5.40;96211.00;;;;4900897;29;20457;-84
2021/04/05 07:53:31;;;;;;;3.27;2.73;;;6.00;91.00;5.90;96210.00;;;;4900375;29;20470;-85
2021/04/05 07:56:27;;;;;;;3.77;2.67;;;6.20;90.80;6.10;96216.00;;;;4899190;29;20206;-84
2021/04/05 07:59:40;;;;;;;5.10;2.83;;;6.50;89.20;6.20;96194.00;;;;4897975;29;20315;-84
2021/04/05 08:02:42;;;;;;;5.50;3.10;;;6.70;85.30;6.40;96199.00;;;;4903439;29;20197;-87
2021/04/05 08:05:50;;;;;;;4.43;3.20;;;6.90;85.00;6.40;96187.00;;;;4901284;29;20205;-85
2021/04/05 08:08:48;;;;;;;9.03;3.20;;;7.10;81.40;6.80;96188.00;;;;4900280;29;20230;-86
2021/04/05 08:11:58;;;;;;;6.50;3.67;;;7.30;81.20;7.30;96186.00;;;;4897199;29;20210;-85
2021/04/05 08:15:04;;;;;;;3.40;2.50;;;7.50;81.80;7.30;96180.00;;;;4897060;29;20619;-86
2021/04/05 08:18:17;;;;;;;3.73;2.87;;;7.80;77.50;7.60;96180.00;;;;4896176;29;20627;-85
2021/04/05 08:21:12;;;;;;;3.00;2.70;;;8.00;77.00;7.70;96176.00;;;;4898111;29;20229;-84
2021/04/05 08:24:13;;;;;;;3.87;2.57;;;8.20;74.60;7.80;96178.00;;;;4900018;29;20213;-84
2021/04/05 08:27:10;;;;;;;3.47;2.30;;;8.30;72.30;8.20;96165.00;;;;4898672;29;20985;-81
2021/04/05 08:30:05;;;;;;;3.43;2.63;;;8.60;72.10;8.50;96174.00;;;;4899887;29;20220;-82
2021/04/05 08:33:05;;;;;;;3.13;2.07;;;8.80;71.50;8.70;96159.00;;;;4897465;29;20214;-81
2021/04/05 08:36:14;;;;;;;3.50;2.47;;;9.10;70.70;9.10;96154.00;;;;4900190;29;21556;-81
2021/04/05 08:39:09;;;;;;;2.40;2.20;;;9.30;69.60;9.10;96148.00;;;;4903835;29;20225;-83
2021/04/05 08:42:18;;;;;;;2.47;2.07;;;9.50;67.20;9.40;96145.00;;;;4894869;29;20205;-85
2021/04/05 08:45:18;;;;;;;2.27;2.00;;;9.80;66.80;9.60;96139.00;;;;4894980;29;20213;-84
2021/04/05 08:48:11;;;;;;;2.33;1.77;;;10.00;66.00;9.90;96140.00;;;;4894026;29;20224;-82
2021/04/05 08:51:03;;;;;;;3.40;1.40;;;10.20;64.70;10.10;96130.00;;;;4894167;29;20561;-81
2021/04/05 08:53:56;;;;;;;3.33;1.70;;;10.40;64.50;10.10;96111.00;;;;4893048;29;20737;-80
2021/04/05 08:56:51;;;;;;;4.63;1.93;;;10.60;62.10;10.40;96103.00;;;;4891887;29;20218;-83
2021/04/05 09:00:18;;;;;;;4.57;2.00;;;10.70;61.60;10.60;96101.00;;;;4896210;29;20236;-88
2021/04/05 09:03:09;;;;;;;4.00;1.90;;;10.90;60.70;10.50;96081.00;;;;4896184;29;20209;-83
2021/04/05 09:06:01;;;;;;;2.80;1.73;;;11.10;58.40;10.60;96073.00;;;;4894181;29;20229;-85
2021/04/05 09:08:51;;;;;;;2.37;1.70;;;11.20;56.60;10.80;96088.00;;;;4894877;29;20225;-84
2021/04/05 09:11:42;;;;;;;1.97;1.43;;;11.30;56.60;11.00;96077.00;;;;4890309;29;20606;-83
2021/04/05 09:14:33;;;;;;;1.70;1.57;;;11.40;55.90;11.10;96076.00;;;;4895332;29;20249;-83
2021/04/05 09:17:54;;;;;;;4.90;1.77;;;11.60;55.80;11.30;96092.00;;;;4894431;29;20679;-83
2021/04/05 09:21:01;;;;;;;1.80;1.70;;;11.80;55.20;11.50;96078.00;;;;4896132;29;20197;-83
2021/04/05 09:24:36;;;;;;;1.83;1.33;;;11.90;54.10;11.50;96076.00;;;;4897541;29;20216;-83
2021/04/05 09:27:57;;;;;;;1.80;1.60;;;12.00;52.00;11.80;96066.00;;;;4911119;29;20714;-84
2021/04/05 09:31:40;;;;;;;1.30;1.03;;;12.20;52.50;12.20;96057.00;;;;4895686;29;20216;-82
2021/04/05 09:35:24;;;;;;;1.57;1.30;;;12.40;51.90;12.60;96036.00;;;;4895929;29;20229;-81
2021/04/05 09:39:10;;;;;;;2.27;1.43;;;12.70;52.50;12.70;96038.00;;;;4888825;29;20731;-84
2021/04/05 09:42:32;;;;;;;1.90;1.40;;;12.90;51.30;13.00;96033.00;;;;4866361;29;20684;-83
2021/04/05 09:45:30;;;;;;;5.40;1.80;;;13.20;51.00;13.40;96022.00;;;;4893974;29;20594;-81
2021/04/05 09:48:37;;;;;;;3.77;1.57;;;13.40;51.10;13.20;96010.00;;;;4894166;29;20222;-82
2021/04/05 09:51:44;;;;;;;5.70;1.93;;;13.60;49.80;13.20;96010.00;;;;4894057;29;20206;-84
2021/04/05 09:54:40;;;;;;;4.27;2.13;;;13.80;49.80;13.60;96016.00;;;;4896175;29;20711;-83
2021/04/05 09:57:37;;;;;;;4.77;1.97;;;13.80;50.40;13.70;95999.00;;;;4897154;29;20696;-82
2021/04/05 10:00:26;;;;;;;4.17;2.30;;;14.00;50.40;14.20;95996.00;;;;4895842;29;20209;-80
2021/04/05 10:03:18;;;;;;;2.70;1.53;;;14.20;51.40;13.00;95989.00;;;;4897428;29;20205;-79
2021/04/05 10:06:07;;;;;;;6.70;2.30;;;14.20;49.60;13.50;95975.00;;;;4896815;29;20209;-87
2021/04/05 10:08:58;;;;;;;3.23;1.87;;;14.10;49.00;13.70;95971.00;;;;4891051;29;20603;-81
2021/04/05 10:11:48;;;;;;;4.63;1.90;;;14.20;48.10;14.20;95957.00;;;;4897119;29;20225;-81
2021/04/05 10:14:41;;;;;;;4.03;1.80;;;14.30;49.60;14.70;95960.00;;;;4896635;29;20230;-83
2021/04/05 10:17:30;;;;;;;4.73;2.00;;;14.60;49.80;14.60;95949.00;;;;4896803;29;20202;-81
2021/04/05 10:20:24;;;;;;;4.67;2.47;;;14.80;49.80;15.00;95952.00;;;;4896337;29;20218;-84
2021/04/05 10:23:13;;;;;;;2.90;2.53;;;15.00;49.80;14.60;95952.00;;;;4897231;29;20218;-83
2021/04/05 10:26:04;;;;;;;4.27;2.63;;;15.20;49.30;13.10;95939.00;;;;4898527;29;20220;-83
2021/04/05 10:28:56;;;;;;;5.33;2.53;;;14.70;47.40;14.50;95937.00;;;;4878479;29;20226;-83
2021/04/05 10:31:45;;;;;;;2.60;2.13;;;14.80;49.50;13.90;95930.00;;;;4889483;29;20624;-82
2021/04/05 10:34:37;;;;;;;3.20;2.20;;;14.80;49.20;13.90;95929.00;;;;4884075;29;20234;-82
2021/04/05 10:37:31;;;;;;;10.80;3.00;;;14.80;49.20;14.60;95927.00;;;;4887252;29;20206;-81
2021/04/05 10:40:20;;;;;;;6.50;2.47;;;14.90;49.50;15.40;95917.00;;;;4891262;29;20210;-81
2021/04/05 10:43:19;;;;;;;3.37;2.50;;;15.20;50.60;15.00;95905.00;;;;4894396;29;20217;-80
2021/04/05 10:46:27;;;;;;;2.63;1.73;;;15.50;49.60;13.50;95894.00;;;;4896551;29;20222;-80
2021/04/05 10:49:18;;;;;;;3.03;2.10;;;15.00;48.00;15.10;95885.00;;;;4891805;29;20230;-80
2021/04/05 10:52:14;;;;;;;1.90;1.70;;;15.10;49.00;15.90;95886.00;;;;4893442;29;20536;-81
2021/04/05 10:55:04;;;;;;;3.93;2.27;;;15.40;50.00;15.40;95887.00;;;;4886699;29;20699;-82
2021/04/05 10:57:55;;;;;;;3.23;2.27;;;15.70;48.00;16.10;95873.00;;;;4893438;29;20214;-80
2021/04/05 11:00:51;;;;;;;2.93;2.13;;;16.00;47.90;16.80;95879.00;;;;4896507;29;20289;-82
2021/04/05 11:03:46;;;;;;;3.10;2.47;;;16.40;48.50;16.40;95874.00;;;;4886305;29;20575;-82
2021/04/05 11:06:35;;;;;;;4.13;2.20;;;16.80;47.70;15.70;95852.00;;;;4896103;29;20206;-79
2021/04/05 11:09:24;;;;;;;2.50;2.23;;;16.80;44.70;16.20;95852.00;;;;4896749;29;20576;-81
2021/04/05 11:12:15;;;;;;;3.93;1.90;;;16.80;46.30;16.30;95842.00;;;;4899401;29;20703;-79
2021/04/05 11:15:07;;;;;;;3.60;2.10;;;17.00;46.60;14.50;95809.00;;;;4899522;29;20236;-81
2021/04/05 11:17:57;;;;;;;2.53;2.17;;;16.60;43.90;15.60;95816.00;;;;4899157;29;20240;-79
2021/04/05 11:20:50;;;;;;;2.37;2.17;;;16.30;44.90;14.50;95794.00;;;;4900689;29;20210;-77
2021/04/05 11:23:38;;;;;;;2.37;1.93;;;15.90;44.40;15.00;95796.00;;;;4898726;29;20214;-80
2021/04/05 11:26:32;;;;;;;2.93;2.10;;;15.90;45.30;15.90;95796.00;;;;4895550;29;20770;-81
2021/04/05 11:29:25;;;;;;;2.60;1.90;;;16.10;46.60;16.50;95778.00;;;;4898470;29;20837;-80
2021/04/05 11:32:17;;;;;;;2.93;1.90;;;16.50;44.70;16.90;95791.00;;;;4898899;29;20210;-80
2021/04/05 11:35:12;;;;;;;3.60;1.63;;;17.00;44.70;17.10;95777.00;;;;4898081;29;20695;-79
2021/04/05 11:38:08;;;;;;;4.43;1.93;;;17.30;44.50;17.90;95771.00;;;;4887692;29;20235;-82
2021/04/05 11:41:01;;;;;;;2.00;1.57;;;17.70;43.90;18.70;95765.00;;;;4889943;29;20213;-81
2021/04/05 11:43:56;;;;;;;1.83;1.63;;;18.30;45.10;18.00;95750.00;;;;4898284;29;20214;-81
2021/04/05 11:46:44;;;;;;;2.33;1.53;;;18.60;41.40;18.50;95742.00;;;;4898702;29;20225;-81
2021/04/05 11:49:34;;;;;;;2.07;1.40;;;18.60;42.30;19.60;95741.00;;;;4899410;29;20234;-82
2021/04/05 11:52:32;;;;;;;2.60;1.47;;;19.00;42.70;16.60;95708.00;;;;4886728;29;20218;-81
2021/04/05 11:55:23;;;;;;;1.57;1.37;;;18.90;40.70;17.40;95708.00;;;;4897976;29;20209;-78
2021/04/05 11:58:21;;;;;;;2.10;1.60;;;18.50;41.80;18.00;95697.00;;;;4893285;29;20248;-81
2021/04/05 12:01:17;;;;;;;1.97;1.60;;;18.50;40.70;18.20;95709.00;;;;4897736;29;20221;-82
2021/04/05 12:04:15;;;;;;;1.57;1.27;;;18.60;40.80;18.40;95732.00;;;;4887253;29;20230;-80
2021/04/05 12:07:11;;;;;;;3.30;1.37;;;18.60;40.70;16.90;95681.00;;;;4898206;29;20206;-81
2021/04/05 12:10:16;;;;;;;1.83;1.40;;;18.60;40.10;16.50;95680.00;;;;4899554;29;20210;-80
2021/04/05 12:13:12;;;;;;;3.20;1.33;;;17.80;41.20;18.10;95699.00;;;;4896986;29;20209;-80
2021/04/05 12:16:03;;;;;;;1.90;1.67;;;17.90;42.20;18.50;95707.00;;;;4894509;29;20214;-80
2021/04/05 12:18:55;;;;;;;3.90;1.73;;;18.30;42.00;18.80;95706.00;;;;4893490;29;20726;-79
2021/04/05 12:21:43;;;;;;;1.73;1.63;;;18.50;42.10;19.10;95665.00;;;;4884459;29;20206;-82
2021/04/05 12:24:34;;;;;;;2.60;1.30;;;18.80;42.40;19.90;95650.00;;;;4897544;29;20241;-80
2021/04/05 12:27:32;;;;;;;2.30;2.10;;;19.20;41.80;20.40;95649.00;;;;4897651;29;20218;-81
2021/04/05 12:30:30;;;;;;;2.73;1.80;;;19.70;42.30;18.90;95641.00;;;;4899309;29;20225;-81
2021/04/05 12:33:19;;;;;;;2.83;2.03;;;20.00;41.00;19.20;95636.00;;;;4896711;29;20217;-80
2021/04/05 12:36:15;;;;;;;3.30;2.10;;;20.00;41.40;17.60;95623.00;;;;4898785;29;20221;-81
2021/04/05 12:39:07;;;;;;;2.50;2.30;;;19.90;40.60;17.60;95626.00;;;;4897986;29;20266;-81
2021/04/05 12:41:55;;;;;;;3.33;2.77;;;19.10;42.30;18.80;95621.00;;;;4894715;29;20688;-80
2021/04/05 12:45:08;;;;;;;4.07;2.53;;;19.20;41.80;18.60;95605.00;;;;4895946;29;20253;-79
2021/04/05 12:47:59;;;;;;;3.30;2.43;;;19.30;42.50;18.50;95599.00;;;;4894552;29;20230;-80
2021/04/05 12:50:48;;;;;;;4.80;2.53;;;19.00;42.50;18.60;95587.00;;;;4893062;29;20206;-81
2021/04/05 12:53:37;;;;;;;4.40;2.00;;;19.10;43.00;19.70;95581.00;;;;4888285;29;20245;-80
2021/04/05 12:56:27;;;;;;;3.33;2.53;;;19.30;43.10;20.20;95580.00;;;;4897815;29;20230;-81
2021/04/05 12:59:22;;;;;;;3.20;2.23;;;19.80;42.80;20.60;95595.00;;;;4897330;29;20241;-81
2021/04/05 13:02:15;;;;;;;5.30;2.40;;;20.10;43.30;19.80;95568.00;;;;4886233;29;20668;-81